CheckWX is a tool to help pilots better visualize weather data.  It is not intended as a substitute for an official pre-flight weather briefing.

19:55:19 UTC

SAEZ TAF
Ministro Pistarini International Airport
Buenos Aires, Argentina
TAF SAEZ 251700Z 2518/2618 24015G30KT CAVOK TX13/2618Z TN00/2611Z BECMG 2520/2523 27010KT BECMG 2606/2609 27005KT 9999 BKN060

Jun-25@
18:00 UTC

Jun-25 @ 18:00 UTC

Jun-25@
20:00 UTC

Jun-25 @ 20:00 UTC

TAF SAEZ 251700Z 2518/2618 24015G30KT CAVOK TX13/2618Z TN00/2611Z
Wind
  • 240° at 15 KTS
  • {Gusting to 30 KTS
Cloud Levels
  • No significant clouds

Jun-25@
20:00 UTC

Jun-25 @ 20:00 UTC

Jun-26@
06:00 UTC

Jun-26 @ 06:00 UTC

BECMG 2520/2523 27010KT

Becoming

Becoming Conditions expected by Tue, Jun 25, 2019 @ 23:00 UTC

Wind
  • 270° at 10 KTS
Cloud Levels
  • No significant clouds

Jun-26@
06:00 UTC

Jun-26 @ 06:00 UTC

Jun-26@
18:00 UTC

Jun-26 @ 18:00 UTC

BECMG 2606/2609 27005KT 9999 BKN060

Becoming

Becoming Conditions expected by Wed, Jun 26, 2019 @ 09:00 UTC

Wind
  • 270° at 5 KTS
Cloud Levels
  • Broken at 6,000' AGL